Time;durP1;ratioP1;P1;durP2;ratioP2;P2;SDS_P1;SDS_P2;PMS_P1;PMS_P2;Temp;Humidity;BMP_temperature;BMP_pressure;BME280_temperature;BME280_humidity;BME280_pressure;Samples;Min_cycle;Max_cycle;Signal;HPM_P1;HPM_P2
2022/08/24 00:01:02;;;;;;;0.00;0.00;;;;;;;;;;5014148;28;20046;-91
2022/08/24 00:03:28;;;;;;;0.00;0.00;;;;;;;;;;5012923;28;20050;-90
2022/08/24 00:05:55;;;;;;;0.00;0.00;;;;;;;;;;5013866;28;20069;-89
2022/08/24 00:08:21;;;;;;;1.92;0.10;;;;;;;;;;5012629;28;20038;-91
2022/08/24 00:10:47;;;;;;;0.17;0.10;;;;;;;;;;5012785;28;20053;-92
2022/08/24 00:13:13;;;;;;;0.00;0.00;;;;;;;;;;5013168;28;20048;-92
2022/08/24 00:15:39;;;;;;;0.00;0.00;;;;;;;;;;5013016;28;20046;-92
2022/08/24 00:18:06;;;;;;;0.20;0.13;;;;;;;;;;5014840;28;20040;-90
2022/08/24 00:20:32;;;;;;;0.00;0.00;;;;;;;;;;5012467;28;20141;-90
2022/08/24 00:22:58;;;;;;;0.00;0.00;;;;;;;;;;5013264;28;20504;-92
2022/08/24 00:25:24;;;;;;;0.00;0.00;;;;;;;;;;5013645;28;20046;-92
2022/08/24 00:27:52;;;;;;;0.00;0.00;;;;;;;;;;5015200;28;20041;-89
2022/08/24 00:30:18;;;;;;;0.05;0.03;;;;;;;;;;5013396;28;20053;-86
2022/08/24 00:32:45;;;;;;;0.00;0.00;;;;;;;;;;5012273;28;20180;-87
2022/08/24 00:35:12;;;;;;;0.00;0.00;;;;;;;;;;5011836;28;20125;-88
2022/08/24 00:37:39;;;;;;;0.00;0.00;;;;;;;;;;5012286;28;20045;-87
2022/08/24 00:40:10;;;;;;;0.00;0.00;;;;;;;;;;5013092;28;20453;-88
2022/08/24 00:42:36;;;;;;;0.00;0.00;;;;;;;;;;5012316;28;20099;-89
2022/08/24 00:45:03;;;;;;;0.00;0.00;;;;;;;;;;5012224;28;20053;-91
2022/08/24 00:47:32;;;;;;;0.00;0.00;;;;;;;;;;5012279;28;20042;-92
2022/08/24 00:50:04;;;;;;;0.00;0.00;;;;;;;;;;5012703;28;20052;-93
2022/08/24 00:52:30;;;;;;;0.00;0.00;;;;;;;;;;5012720;28;20050;-93
2022/08/24 00:55:01;;;;;;;0.25;0.15;;;;;;;;;;5012765;28;20444;-96
2022/08/24 00:57:29;;;;;;;0.00;0.00;;;;;;;;;;4996674;28;20467;-90
2022/08/24 01:00:07;;;;;;;0.00;0.00;;;;;;;;;;4995643;28;20100;-89
2022/08/24 01:02:34;;;;;;;2.45;0.63;;;;;;;;;;5011736;28;20046;-88
2022/08/24 01:05:02;;;;;;;0.00;0.00;;;;;;;;;;5012011;28;20132;-90
2022/08/24 01:07:29;;;;;;;0.22;0.10;;;;;;;;;;5011808;28;20092;-89
2022/08/24 01:09:59;;;;;;;0.00;0.00;;;;;;;;;;5011703;28;20133;-90
2022/08/24 01:12:26;;;;;;;0.00;0.00;;;;;;;;;;5013058;28;20440;-89
2022/08/24 01:14:53;;;;;;;0.00;0.00;;;;;;;;;;5011768;28;20049;-91
2022/08/24 01:20:05;;;;;;;0.00;0.00;;;;;;;;;;5013300;28;20065;-91
2022/08/24 01:22:31;;;;;;;0.20;0.00;;;;;;;;;;5011564;28;20081;-91
2022/08/24 01:24:57;;;;;;;0.00;0.00;;;;;;;;;;4995429;28;20108;-90
2022/08/24 01:27:23;;;;;;;0.00;0.00;;;;;;;;;;5011715;28;20046;-91
2022/08/24 01:29:49;;;;;;;0.00;0.00;;;;;;;;;;5011696;28;20042;-88
2022/08/24 01:32:16;;;;;;;0.00;0.00;;;;;;;;;;5011449;28;20509;-89
2022/08/24 01:34:42;;;;;;;0.00;0.00;;;;;;;;;;5011444;28;20078;-87
2022/08/24 01:37:10;;;;;;;0.00;0.00;;;;;;;;;;5011217;28;20120;-88
2022/08/24 01:39:39;;;;;;;0.00;0.00;;;;;;;;;;5012944;28;20034;-89
2022/08/24 01:42:05;;;;;;;1.88;0.10;;;;;;;;;;5012705;28;20045;-88
2022/08/24 01:44:35;;;;;;;0.00;0.00;;;;;;;;;;5012936;28;20042;-87
2022/08/24 01:47:03;;;;;;;0.00;0.00;;;;;;;;;;5011208;28;20124;-89
2022/08/24 01:49:30;;;;;;;0.00;0.00;;;;;;;;;;5011627;28;20504;-87
2022/08/24 01:51:56;;;;;;;0.20;0.10;;;;;;;;;;5012421;28;20457;-88
2022/08/24 01:54:22;;;;;;;0.00;0.00;;;;;;;;;;5012618;28;20037;-88
2022/08/24 01:56:48;;;;;;;0.00;0.00;;;;;;;;;;5011120;28;20478;-90
2022/08/24 01:59:14;;;;;;;0.00;0.00;;;;;;;;;;5012095;28;20068;-91
2022/08/24 02:01:42;;;;;;;0.00;0.00;;;;;;;;;;5014941;28;20093;-90
2022/08/24 02:04:08;;;;;;;0.00;0.00;;;;;;;;;;5015253;28;20073;-91
2022/08/24 02:06:34;;;;;;;0.00;0.00;;;;;;;;;;5014917;28;20053;-89
2022/08/24 02:09:01;;;;;;;0.00;0.00;;;;;;;;;;5014879;28;20046;-90
2022/08/24 02:11:27;;;;;;;0.00;0.00;;;;;;;;;;5014725;28;20046;-89
2022/08/24 02:13:53;;;;;;;0.00;0.00;;;;;;;;;;5014566;28;20175;-89
2022/08/24 02:16:20;;;;;;;0.00;0.00;;;;;;;;;;5014405;28;20053;-88
2022/08/24 02:18:46;;;;;;;0.00;0.00;;;;;;;;;;5014509;28;20042;-87
2022/08/24 02:21:12;;;;;;;0.00;0.00;;;;;;;;;;5014434;28;20053;-86
2022/08/24 02:23:39;;;;;;;0.10;0.00;;;;;;;;;;5014443;28;20121;-86
2022/08/24 02:26:07;;;;;;;0.00;0.00;;;;;;;;;;5015804;28;20496;-88
2022/08/24 02:28:33;;;;;;;0.00;0.00;;;;;;;;;;5014695;28;20042;-88
2022/08/24 02:31:00;;;;;;;0.00;0.00;;;;;;;;;;5014367;28;20045;-88
2022/08/24 02:33:26;;;;;;;0.00;0.00;;;;;;;;;;5014020;28;20041;-88
2022/08/24 02:35:53;;;;;;;0.00;0.00;;;;;;;;;;5014189;28;20058;-89
2022/08/24 02:38:19;;;;;;;0.00;0.00;;;;;;;;;;5014044;28;20046;-89
2022/08/24 02:40:46;;;;;;;0.00;0.00;;;;;;;;;;5015622;28;20044;-88
2022/08/24 02:43:12;;;;;;;0.00;0.00;;;;;;;;;;5015330;28;20041;-87
2022/08/24 02:45:43;;;;;;;0.00;0.00;;;;;;;;;;5013908;28;20108;-86
2022/08/24 02:48:09;;;;;;;0.00;0.00;;;;;;;;;;5013813;28;20057;-87
2022/08/24 02:50:43;;;;;;;0.00;0.00;;;;;;;;;;5013936;28;20046;-87
2022/08/24 02:53:09;;;;;;;0.00;0.00;;;;;;;;;;5015065;28;20042;-89
2022/08/24 02:55:38;;;;;;;0.00;0.00;;;;;;;;;;5013848;28;20139;-86
2022/08/24 02:58:04;;;;;;;0.00;0.00;;;;;;;;;;5013930;28;20045;-86
2022/08/24 03:00:30;;;;;;;0.00;0.00;;;;;;;;;;5014983;28;20485;-87
2022/08/24 03:02:56;;;;;;;0.30;0.00;;;;;;;;;;5013404;28;20046;-87
2022/08/24 03:05:23;;;;;;;0.00;0.00;;;;;;;;;;5015251;28;20045;-87
2022/08/24 03:07:49;;;;;;;0.00;0.00;;;;;;;;;;5013691;28;20056;-86
2022/08/24 03:10:15;;;;;;;0.00;0.00;;;;;;;;;;5014742;28;20205;-87
2022/08/24 03:12:41;;;;;;;0.00;0.00;;;;;;;;;;5012743;28;20452;-87
2022/08/24 03:15:09;;;;;;;0.00;0.00;;;;;;;;;;5013634;28;20045;-86
2022/08/24 03:17:35;;;;;;;0.00;0.00;;;;;;;;;;5013600;28;20422;-87
2022/08/24 03:20:01;;;;;;;0.00;0.00;;;;;;;;;;5013449;28;20046;-87
2022/08/24 03:22:27;;;;;;;0.00;0.00;;;;;;;;;;5014502;28;20044;-88
2022/08/24 03:24:53;;;;;;;0.00;0.00;;;;;;;;;;5013254;28;20497;-87
2022/08/24 03:27:19;;;;;;;0.00;0.00;;;;;;;;;;5012971;28;20125;-88
2022/08/24 03:29:45;;;;;;;0.00;0.00;;;;;;;;;;5013285;28;20141;-89
2022/08/24 03:32:12;;;;;;;0.00;0.00;;;;;;;;;;5014451;28;20049;-87
2022/08/24 03:34:38;;;;;;;0.00;0.00;;;;;;;;;;5014670;28;20042;-87
2022/08/24 03:37:04;;;;;;;0.00;0.00;;;;;;;;;;5012891;28;20188;-87
2022/08/24 03:39:30;;;;;;;0.00;0.00;;;;;;;;;;5014542;28;20037;-87
2022/08/24 03:41:56;;;;;;;0.00;0.00;;;;;;;;;;5012672;28;20045;-87
2022/08/24 03:44:24;;;;;;;0.00;0.00;;;;;;;;;;5014159;28;20034;-88
2022/08/24 03:46:51;;;;;;;0.00;0.00;;;;;;;;;;5012840;28;20064;-87
2022/08/24 03:49:18;;;;;;;0.00;0.00;;;;;;;;;;5012822;28;20080;-87
2022/08/24 03:51:44;;;;;;;0.00;0.00;;;;;;;;;;5012846;28;20073;-90
2022/08/24 03:54:10;;;;;;;0.00;0.00;;;;;;;;;;5013833;28;20073;-90
2022/08/24 03:56:37;;;;;;;0.00;0.00;;;;;;;;;;5012748;28;20523;-90
2022/08/24 03:59:03;;;;;;;0.00;0.00;;;;;;;;;;5012883;28;20038;-91
2022/08/24 04:01:30;;;;;;;0.00;0.00;;;;;;;;;;5013042;28;20073;-88
2022/08/24 04:03:56;;;;;;;0.00;0.00;;;;;;;;;;5013932;28;20038;-88
2022/08/24 04:06:22;;;;;;;0.00;0.00;;;;;;;;;;5014041;28;20046;-88
2022/08/24 04:08:48;;;;;;;0.10;0.00;;;;;;;;;;5013861;28;20069;-90
2022/08/24 04:11:19;;;;;;;0.13;0.10;;;;;;;;;;5012618;28;20564;-90
2022/08/24 04:13:46;;;;;;;0.00;0.00;;;;;;;;;;5013815;28;20092;-89
2022/08/24 04:16:14;;;;;;;0.00;0.00;;;;;;;;;;5012515;28;20096;-89
2022/08/24 04:18:40;;;;;;;0.32;0.10;;;;;;;;;;5012313;28;20120;-88
2022/08/24 04:21:14;;;;;;;0.00;0.00;;;;;;;;;;5012652;28;20042;-89
2022/08/24 04:23:41;;;;;;;0.00;0.00;;;;;;;;;;5011925;28;20053;-90
2022/08/24 04:26:07;;;;;;;0.00;0.00;;;;;;;;;;5012228;28;20470;-91
2022/08/24 04:28:33;;;;;;;0.20;0.20;;;;;;;;;;5012235;28;20057;-89
2022/08/24 04:30:59;;;;;;;0.00;0.00;;;;;;;;;;4995811;28;20045;-89
2022/08/24 04:33:25;;;;;;;0.00;0.00;;;;;;;;;;5011891;28;20045;-88
2022/08/24 04:35:51;;;;;;;0.00;0.00;;;;;;;;;;5011999;28;20086;-87
2022/08/24 04:38:18;;;;;;;0.00;0.00;;;;;;;;;;5012112;28;20061;-88
2022/08/24 04:40:45;;;;;;;0.00;0.00;;;;;;;;;;5012213;28;20069;-90
2022/08/24 04:43:13;;;;;;;0.00;0.00;;;;;;;;;;5011888;28;20391;-89
2022/08/24 04:45:40;;;;;;;0.00;0.00;;;;;;;;;;5011917;28;20482;-89
2022/08/24 04:48:06;;;;;;;0.00;0.00;;;;;;;;;;5011920;28;20469;-89
2022/08/24 04:50:36;;;;;;;0.00;0.00;;;;;;;;;;5013196;28;20045;-90
2022/08/24 04:53:03;;;;;;;0.00;0.00;;;;;;;;;;5013416;28;20042;-90
2022/08/24 04:55:29;;;;;;;0.00;0.00;;;;;;;;;;5012150;28;20049;-90
2022/08/24 04:57:55;;;;;;;0.00;0.00;;;;;;;;;;5011884;28;20037;-90
2022/08/24 05:00:22;;;;;;;0.00;0.00;;;;;;;;;;5011875;28;20125;-89
2022/08/24 05:02:48;;;;;;;0.00;0.00;;;;;;;;;;4995614;28;20038;-87
2022/08/24 05:05:14;;;;;;;0.00;0.00;;;;;;;;;;5011719;28;20374;-87
2022/08/24 05:07:40;;;;;;;0.00;0.00;;;;;;;;;;5012002;28;20080;-88
2022/08/24 05:10:07;;;;;;;0.10;0.10;;;;;;;;;;5011613;28;20620;-90
2022/08/24 05:12:33;;;;;;;0.00;0.00;;;;;;;;;;4996211;28;20053;-85
2022/08/24 05:14:59;;;;;;;0.00;0.00;;;;;;;;;;5011343;28;20115;-87
2022/08/24 05:17:26;;;;;;;0.00;0.00;;;;;;;;;;5011646;28;20499;-85
2022/08/24 05:19:52;;;;;;;0.00;0.00;;;;;;;;;;5011651;28;20081;-85
2022/08/24 05:22:18;;;;;;;0.00;0.00;;;;;;;;;;4995196;28;20256;-87
2022/08/24 05:24:44;;;;;;;0.00;0.00;;;;;;;;;;5011430;28;20044;-86
2022/08/24 05:27:10;;;;;;;0.00;0.00;;;;;;;;;;5013053;28;20034;-87
2022/08/24 05:29:36;;;;;;;0.00;0.00;;;;;;;;;;5011371;28;20038;-86
2022/08/24 05:32:03;;;;;;;0.00;0.00;;;;;;;;;;5012916;28;20460;-87
2022/08/24 05:34:29;;;;;;;0.00;0.00;;;;;;;;;;5012435;28;20117;-86
2022/08/24 05:36:54;;;;;;;0.00;0.00;;;;;;;;;;5015324;28;20129;-87
2022/08/24 05:39:20;;;;;;;0.00;0.00;;;;;;;;;;5015255;28;20088;-86
2022/08/24 05:41:47;;;;;;;0.00;0.00;;;;;;;;;;5015447;28;20048;-86
2022/08/24 05:44:14;;;;;;;0.00;0.00;;;;;;;;;;4998819;28;20034;-87
2022/08/24 05:46:41;;;;;;;0.00;0.00;;;;;;;;;;5015002;28;20062;-89
2022/08/24 05:49:07;;;;;;;0.00;0.00;;;;;;;;;;5016594;28;20095;-87
2022/08/24 05:51:33;;;;;;;0.00;0.00;;;;;;;;;;5015226;28;20440;-89
2022/08/24 05:53:59;;;;;;;0.00;0.00;;;;;;;;;;5016601;28;20038;-89
2022/08/24 05:56:25;;;;;;;0.00;0.00;;;;;;;;;;5016395;28;20482;-88
2022/08/24 05:58:51;;;;;;;0.00;0.00;;;;;;;;;;5014985;28;20049;-88
2022/08/24 06:01:19;;;;;;;0.00;0.00;;;;;;;;;;5014723;28;20042;-87
2022/08/24 06:03:46;;;;;;;0.00;0.00;;;;;;;;;;5014977;28;20038;-93
2022/08/24 06:06:12;;;;;;;0.00;0.00;;;;;;;;;;5014893;28;20109;-89
2022/08/24 06:08:40;;;;;;;0.00;0.00;;;;;;;;;;5014774;28;20048;-89
2022/08/24 06:11:06;;;;;;;0.00;0.00;;;;;;;;;;5015563;28;20047;-83
2022/08/24 06:13:32;;;;;;;0.00;0.00;;;;;;;;;;5014459;28;20448;-83
2022/08/24 06:16:10;;;;;;;0.30;0.10;;;;;;;;;;5015928;28;20045;-84
2022/08/24 06:18:35;;;;;;;0.00;0.00;;;;;;;;;;5014420;28;20073;-83
2022/08/24 06:21:08;;;;;;;0.00;0.00;;;;;;;;;;5014441;28;20108;-82
2022/08/24 06:23:34;;;;;;;0.00;0.00;;;;;;;;;;5014501;28;20038;-83
2022/08/24 06:28:45;;;;;;;0.00;0.00;;;;;;;;;;5015458;28;20081;-82
2022/08/24 06:31:11;;;;;;;0.20;0.00;;;;;;;;;;5015810;28;20281;-82
2022/08/24 06:33:37;;;;;;;0.00;0.00;;;;;;;;;;5015712;28;20092;-82
2022/08/24 06:36:03;;;;;;;0.00;0.00;;;;;;;;;;5014374;28;20404;-82
2022/08/24 06:38:29;;;;;;;0.00;0.00;;;;;;;;;;5013565;28;20117;-89
2022/08/24 06:40:55;;;;;;;0.00;0.00;;;;;;;;;;5014012;28;20053;-81
2022/08/24 06:43:23;;;;;;;0.00;0.00;;;;;;;;;;5013892;28;20092;-81
2022/08/24 06:45:49;;;;;;;0.00;0.00;;;;;;;;;;4997224;28;20096;-81
2022/08/24 06:48:15;;;;;;;0.00;0.00;;;;;;;;;;5015472;28;20060;-81
2022/08/24 06:50:41;;;;;;;0.00;0.00;;;;;;;;;;5015263;28;20053;-80
2022/08/24 06:53:08;;;;;;;0.00;0.00;;;;;;;;;;5015014;28;20485;-81
2022/08/24 06:55:34;;;;;;;0.00;0.00;;;;;;;;;;5013761;28;20042;-80
2022/08/24 06:58:01;;;;;;;0.00;0.00;;;;;;;;;;5015158;28;20404;-81
2022/08/24 07:00:29;;;;;;;0.00;0.00;;;;;;;;;;5013682;28;20078;-80
2022/08/24 07:02:55;;;;;;;0.00;0.00;;;;;;;;;;5013752;28;20045;-80
2022/08/24 07:05:21;;;;;;;0.00;0.00;;;;;;;;;;5013418;28;20117;-81
2022/08/24 07:07:47;;;;;;;0.00;0.00;;;;;;;;;;4997447;28;20137;-80
2022/08/24 07:10:13;;;;;;;0.00;0.00;;;;;;;;;;5013596;28;20077;-81
2022/08/24 07:12:39;;;;;;;0.00;0.00;;;;;;;;;;5013675;28;20056;-80
2022/08/24 07:15:06;;;;;;;0.00;0.00;;;;;;;;;;5013494;28;20056;-81
2022/08/24 07:17:32;;;;;;;0.00;0.00;;;;;;;;;;5013435;28;20120;-80
2022/08/24 07:19:58;;;;;;;0.00;0.00;;;;;;;;;;5014722;28;20122;-81
2022/08/24 07:22:24;;;;;;;0.00;0.00;;;;;;;;;;5013140;28;20485;-81
2022/08/24 07:24:49;;;;;;;0.00;0.00;;;;;;;;;;5013010;28;20041;-84
2022/08/24 07:27:15;;;;;;;0.00;0.00;;;;;;;;;;5013518;28;20056;-84
2022/08/24 07:29:41;;;;;;;0.00;0.00;;;;;;;;;;5014518;28;20041;-84
2022/08/24 07:32:09;;;;;;;0.00;0.00;;;;;;;;;;5014028;28;20118;-90
2022/08/24 07:34:36;;;;;;;0.00;0.00;;;;;;;;;;5014659;28;20045;-85
2022/08/24 07:37:02;;;;;;;0.00;0.00;;;;;;;;;;5013041;28;20168;-85
2022/08/24 07:39:29;;;;;;;0.00;0.00;;;;;;;;;;5012831;28;20046;-85
2022/08/24 07:41:56;;;;;;;0.00;0.00;;;;;;;;;;5013225;28;20053;-85
2022/08/24 07:44:22;;;;;;;0.00;0.00;;;;;;;;;;5014128;28;20042;-84
2022/08/24 07:46:48;;;;;;;0.00;0.00;;;;;;;;;;5012779;28;20049;-86
2022/08/24 07:49:14;;;;;;;0.00;0.00;;;;;;;;;;5013054;28;20571;-85
2022/08/24 07:51:40;;;;;;;0.00;0.00;;;;;;;;;;5012814;28;20426;-85
2022/08/24 07:54:07;;;;;;;0.00;0.00;;;;;;;;;;5012739;28;20049;-86
2022/08/24 07:56:33;;;;;;;0.00;0.00;;;;;;;;;;5012394;28;20054;-84
2022/08/24 07:58:59;;;;;;;0.00;0.00;;;;;;;;;;5013748;28;20034;-85
2022/08/24 08:01:25;;;;;;;0.00;0.00;;;;;;;;;;5013679;28;20038;-85
2022/08/24 08:03:52;;;;;;;0.00;0.00;;;;;;;;;;5012862;28;20464;-86
2022/08/24 08:06:18;;;;;;;0.00;0.00;;;;;;;;;;5013595;28;20508;-86
2022/08/24 08:08:44;;;;;;;0.00;0.00;;;;;;;;;;5012844;28;20045;-84
2022/08/24 08:11:10;;;;;;;0.00;0.00;;;;;;;;;;5012110;28;20053;-85
2022/08/24 08:13:37;;;;;;;0.00;0.00;;;;;;;;;;5014014;28;20092;-85
2022/08/24 08:16:04;;;;;;;0.00;0.00;;;;;;;;;;5012063;28;20126;-87
2022/08/24 08:18:30;;;;;;;0.00;0.00;;;;;;;;;;5011922;28;20046;-84
2022/08/24 08:20:56;;;;;;;0.00;0.00;;;;;;;;;;5013458;28;20201;-84
2022/08/24 08:26:14;;;;;;;0.00;0.00;;;;;;;;;;5013652;28;20042;-84
2022/08/24 08:28:41;;;;;;;0.00;0.00;;;;;;;;;;5012216;28;20038;-83
2022/08/24 08:31:07;;;;;;;0.00;0.00;;;;;;;;;;4995846;28;20413;-84
2022/08/24 08:33:34;;;;;;;0.00;0.00;;;;;;;;;;5011996;28;20050;-85
2022/08/24 08:36:06;;;;;;;0.00;0.00;;;;;;;;;;5011891;28;20052;-85
2022/08/24 08:38:33;;;;;;;0.00;0.00;;;;;;;;;;5013319;28;20504;-85
2022/08/24 08:41:07;;;;;;;0.00;0.00;;;;;;;;;;5011875;28;20122;-84
2022/08/24 08:43:41;;;;;;;0.00;0.00;;;;;;;;;;5013422;28;20042;-85
2022/08/24 08:46:26;;;;;;;0.00;0.00;;;;;;;;;;5012792;28;20068;-84
2022/08/24 08:49:11;;;;;;;0.00;0.00;;;;;;;;;;5011889;28;20077;-89
2022/08/24 08:51:51;;;;;;;0.00;0.00;;;;;;;;;;5010769;28;20288;-82
2022/08/24 08:54:17;;;;;;;0.00;0.00;;;;;;;;;;5011811;28;20176;-83
2022/08/24 08:56:52;;;;;;;0.00;0.00;;;;;;;;;;5011520;28;20133;-85
2022/08/24 08:59:18;;;;;;;;;;;;;;;;;;5013691;28;20048;-83
2022/08/24 09:01:59;;;;;;;0.00;0.00;;;;;;;;;;5011420;28;19917;-83
2022/08/24 09:04:44;;;;;;;0.00;0.00;;;;;;;;;;5011873;28;20140;-83
2022/08/24 09:07:22;;;;;;;0.00;0.00;;;;;;;;;;5011588;28;20095;-83
2022/08/24 09:09:51;;;;;;;0.00;0.00;;;;;;;;;;5013525;28;20037;-83
2022/08/24 09:12:36;;;;;;;0.00;0.00;;;;;;;;;;5015551;28;20095;-83
2022/08/24 09:15:35;;;;;;;0.00;0.00;;;;;;;;;;5016050;28;20103;-83
2022/08/24 09:18:17;;;;;;;0.00;0.00;;;;;;;;;;4984397;28;20120;-83
2022/08/24 09:20:50;;;;;;;0.00;0.00;;;;;;;;;;5016829;28;20040;-83
2022/08/24 09:23:19;;;;;;;0.00;0.00;;;;;;;;;;5015510;28;20142;-83
2022/08/24 09:25:51;;;;;;;0.00;0.00;;;;;;;;;;5016804;28;20040;-83
2022/08/24 09:28:26;;;;;;;0.00;0.00;;;;;;;;;;5017094;28;20076;-83
2022/08/24 09:31:02;;;;;;;0.00;0.00;;;;;;;;;;5016800;28;20516;-83
2022/08/24 09:33:35;;;;;;;0.00;0.00;;;;;;;;;;5015412;28;20068;-83
2022/08/24 09:36:07;;;;;;;0.00;0.00;;;;;;;;;;5016321;28;20089;-83
2022/08/24 09:39:00;;;;;;;0.00;0.00;;;;;;;;;;5015438;28;20458;-82
2022/08/24 09:41:44;;;;;;;0.00;0.00;;;;;;;;;;5016504;28;20092;-83
2022/08/24 09:44:10;;;;;;;0.00;0.00;;;;;;;;;;5016743;28;20033;-83
2022/08/24 09:46:52;;;;;;;0.00;0.00;;;;;;;;;;5015999;28;20057;-83
2022/08/24 09:49:38;;;;;;;0.00;0.00;;;;;;;;;;5015323;28;20067;-83
2022/08/24 09:52:10;;;;;;;0.00;0.00;;;;;;;;;;5014867;28;20050;-83
2022/08/24 09:54:42;;;;;;;0.00;0.00;;;;;;;;;;5016452;28;20110;-83
2022/08/24 09:57:19;;;;;;;0.00;0.00;;;;;;;;;;4998320;28;20042;-83
2022/08/24 09:59:55;;;;;;;0.00;0.00;;;;;;;;;;5016481;28;20041;-83
2022/08/24 10:02:21;;;;;;;;;;;;;;;;;;5015125;28;20072;-83
2022/08/24 10:05:06;;;;;;;0.00;0.00;;;;;;;;;;5016074;28;19967;-84
2022/08/24 10:07:39;;;;;;;0.00;0.00;;;;;;;;;;5015167;28;20096;-83
2022/08/24 10:10:24;;;;;;;0.00;0.00;;;;;;;;;;5015021;28;20420;-84
2022/08/24 10:13:03;;;;;;;0.00;0.00;;;;;;;;;;5014568;28;20052;-84
2022/08/24 10:15:45;;;;;;;0.00;0.00;;;;;;;;;;5014913;28;20046;-85
2022/08/24 10:18:22;;;;;;;0.00;0.00;;;;;;;;;;5014406;28;20034;-84
2022/08/24 10:21:07;;;;;;;0.00;0.00;;;;;;;;;;5014405;28;20045;-85
2022/08/24 10:23:46;;;;;;;0.00;0.00;;;;;;;;;;5013461;28;20176;-85
2022/08/24 10:26:19;;;;;;;0.00;0.00;;;;;;;;;;5015397;28;20057;-86
2022/08/24 10:28:51;;;;;;;0.00;0.00;;;;;;;;;;5014758;28;20041;-84
2022/08/24 10:31:31;;;;;;;0.00;0.00;;;;;;;;;;5014293;28;20496;-84
2022/08/24 10:34:06;;;;;;;0.00;0.00;;;;;;;;;;5014313;28;20153;-83
2022/08/24 10:36:35;;;;;;;0.00;0.00;;;;;;;;;;5015447;28;20042;-84
2022/08/24 10:42:08;;;;;;;0.00;0.00;;;;;;;;;;5015430;28;20121;-83
2022/08/24 10:44:41;;;;;;;0.00;0.00;;;;;;;;;;5013948;28;20370;-83
2022/08/24 10:47:21;;;;;;;0.00;0.00;;;;;;;;;;5014092;28;20440;-83
2022/08/24 10:50:06;;;;;;;0.00;0.00;;;;;;;;;;5015565;28;20038;-84
2022/08/24 10:52:32;;;;;;;0.00;0.00;;;;;;;;;;5014995;28;20103;-83
2022/08/24 10:55:11;;;;;;;0.00;0.00;;;;;;;;;;5015283;28;20485;-84
2022/08/24 10:57:39;;;;;;;0.00;0.00;;;;;;;;;;5013910;28;20061;-83
2022/08/24 11:00:13;;;;;;;0.00;0.00;;;;;;;;;;5015099;28;20089;-84
2022/08/24 11:02:40;;;;;;;0.00;0.00;;;;;;;;;;5013780;28;20374;-84
2022/08/24 11:05:07;;;;;;;0.00;0.00;;;;;;;;;;5013484;28;20045;-84
2022/08/24 11:07:33;;;;;;;0.00;0.00;;;;;;;;;;5014965;28;20117;-83
2022/08/24 11:10:00;;;;;;;0.00;0.00;;;;;;;;;;5015053;28;20172;-84
2022/08/24 11:12:29;;;;;;;0.00;0.00;;;;;;;;;;5014851;28;20491;-84
2022/08/24 11:14:57;;;;;;;0.00;0.00;;;;;;;;;;5013602;28;20507;-85
2022/08/24 11:17:24;;;;;;;0.00;0.00;;;;;;;;;;5014544;28;20512;-86
2022/08/24 11:19:50;;;;;;;0.00;0.00;;;;;;;;;;5014758;28;20088;-87
2022/08/24 11:22:29;;;;;;;0.00;0.00;;;;;;;;;;5013374;28;20037;-89
2022/08/24 11:24:59;;;;;;;0.00;0.00;;;;;;;;;;5013430;28;20093;-86
2022/08/24 11:27:29;;;;;;;0.00;0.00;;;;;;;;;;5013316;28;20386;-84
2022/08/24 11:29:56;;;;;;;0.00;0.00;;;;;;;;;;5013330;28;20046;-85
2022/08/24 11:32:30;;;;;;;0.00;0.00;;;;;;;;;;5013585;28;20052;-85
2022/08/24 11:35:01;;;;;;;0.00;0.00;;;;;;;;;;5013380;28;20048;-85
2022/08/24 11:37:34;;;;;;;0.00;0.00;;;;;;;;;;5014542;28;20119;-85
2022/08/24 11:40:01;;;;;;;0.00;0.00;;;;;;;;;;5013026;28;20101;-85
2022/08/24 11:42:46;;;;;;;0.00;0.00;;;;;;;;;;5013033;28;20501;-85
2022/08/24 11:45:19;;;;;;;0.00;0.00;;;;;;;;;;5014205;28;20053;-85
2022/08/24 11:47:51;;;;;;;0.00;0.00;;;;;;;;;;5012802;28;20124;-85
2022/08/24 11:50:30;;;;;;;0.00;0.00;;;;;;;;;;5012937;28;20049;-86
2022/08/24 11:53:14;;;;;;;0.00;0.00;;;;;;;;;;5014083;28;20037;-87
2022/08/24 11:55:59;;;;;;;0.00;0.00;;;;;;;;;;5012671;28;20091;-84
2022/08/24 11:58:48;;;;;;;0.00;0.00;;;;;;;;;;5014213;28;20037;-87
2022/08/24 12:01:13;;;;;;;0.00;0.00;;;;;;;;;;5013033;28;20081;-86
2022/08/24 12:03:49;;;;;;;0.00;0.00;;;;;;;;;;5014041;28;20162;-86
2022/08/24 12:06:15;;;;;;;0.20;0.13;;;;;;;;;;5012625;28;20048;-87
2022/08/24 12:08:58;;;;;;;0.00;0.00;;;;;;;;;;5013638;28;20038;-87
2022/08/24 12:11:31;;;;;;;0.00;0.00;;;;;;;;;;5014056;28;20046;-85
2022/08/24 12:14:04;;;;;;;0.00;0.00;;;;;;;;;;5013858;28;20053;-82
2022/08/24 12:16:49;;;;;;;0.00;0.00;;;;;;;;;;5013757;28;20366;-83
2022/08/24 12:19:15;;;;;;;0.00;0.00;;;;;;;;;;5012463;28;20504;-83
2022/08/24 12:21:44;;;;;;;0.00;0.00;;;;;;;;;;5012251;28;20038;-83
2022/08/24 12:24:25;;;;;;;0.00;0.00;;;;;;;;;;5013449;28;20125;-82
2022/08/24 12:26:55;;;;;;;0.00;0.00;;;;;;;;;;5013691;28;20120;-83
2022/08/24 12:29:34;;;;;;;0.00;0.00;;;;;;;;;;5013496;28;20280;-82
2022/08/24 12:32:20;;;;;;;0.00;0.00;;;;;;;;;;5013663;28;20136;-82
2022/08/24 12:34:58;;;;;;;0.00;0.00;;;;;;;;;;5012172;28;20069;-86
2022/08/24 12:37:31;;;;;;;0.00;0.00;;;;;;;;;;5011752;28;20057;-86
2022/08/24 12:40:27;;;;;;;0.00;0.00;;;;;;;;;;5013371;28;20052;-86
2022/08/24 12:42:55;;;;;;;0.00;0.00;;;;;;;;;;4995581;28;20162;-86
2022/08/24 12:45:22;;;;;;;0.00;0.00;;;;;;;;;;5011880;28;20050;-89
2022/08/24 12:48:02;;;;;;;0.00;0.00;;;;;;;;;;5011618;28;20103;-86
2022/08/24 12:50:39;;;;;;;0.00;0.00;;;;;;;;;;5013442;28;20044;-86
2022/08/24 12:53:08;;;;;;;0.00;0.00;;;;;;;;;;5012943;28;20489;-85
2022/08/24 12:55:49;;;;;;;0.00;0.00;;;;;;;;;;5011799;28;20445;-86
2022/08/24 12:58:27;;;;;;;0.00;0.00;;;;;;;;;;5013209;28;20100;-86
2022/08/24 13:00:55;;;;;;;0.00;0.00;;;;;;;;;;5013267;28;20117;-87
2022/08/24 13:03:24;;;;;;;0.00;0.00;;;;;;;;;;5013060;28;20070;-87
2022/08/24 13:05:52;;;;;;;0.00;0.00;;;;;;;;;;5011785;28;20050;-86
2022/08/24 13:08:37;;;;;;;0.00;0.00;;;;;;;;;;5011576;28;20041;-87
2022/08/24 13:11:05;;;;;;;0.00;0.00;;;;;;;;;;5010292;28;20046;-86
2022/08/24 13:14:03;;;;;;;0.00;0.00;;;;;;;;;;5011488;28;20049;-86
2022/08/24 13:16:46;;;;;;;0.00;0.00;;;;;;;;;;5013141;28;20042;-86
2022/08/24 13:19:15;;;;;;;0.00;0.00;;;;;;;;;;5012874;28;20049;-86
2022/08/24 13:21:44;;;;;;;0.00;0.00;;;;;;;;;;5012759;28;20509;-85
2022/08/24 13:24:41;;;;;;;0.00;0.00;;;;;;;;;;5012644;28;20053;-86
2022/08/24 13:27:14;;;;;;;0.00;0.00;;;;;;;;;;5013138;28;20052;-86
2022/08/24 13:29:43;;;;;;;0.00;0.00;;;;;;;;;;5012626;28;20046;-86
2022/08/24 13:32:16;;;;;;;0.00;0.00;;;;;;;;;;5011515;28;20176;-85
2022/08/24 13:34:44;;;;;;;0.00;0.00;;;;;;;;;;5010857;28;20404;-87
2022/08/24 13:37:16;;;;;;;0.00;0.00;;;;;;;;;;4999902;28;20092;-86
2022/08/24 13:40:00;;;;;;;0.00;0.00;;;;;;;;;;5011458;28;20046;-87
2022/08/24 13:42:45;;;;;;;0.00;0.00;;;;;;;;;;5012910;28;20078;-86
2022/08/24 13:45:16;;;;;;;0.00;0.00;;;;;;;;;;5012501;28;20123;-86
2022/08/24 13:47:48;;;;;;;0.00;0.00;;;;;;;;;;5013252;28;20054;-86
2022/08/24 13:50:26;;;;;;;0.00;0.00;;;;;;;;;;5011099;28;20050;-83
2022/08/24 13:53:11;;;;;;;0.00;0.00;;;;;;;;;;5003471;28;20038;-84
2022/08/24 13:56:12;;;;;;;0.00;0.00;;;;;;;;;;5011946;28;20090;-83
2022/08/24 13:58:41;;;;;;;0.00;0.00;;;;;;;;;;5016161;28;20499;-84
2022/08/24 14:01:33;;;;;;;0.00;0.00;;;;;;;;;;5016551;28;20049;-83
2022/08/24 14:04:11;;;;;;;0.00;0.00;;;;;;;;;;5016241;28;20587;-83
2022/08/24 14:06:41;;;;;;;0.00;0.00;;;;;;;;;;5016314;28;20045;-83
2022/08/24 14:09:10;;;;;;;0.00;0.00;;;;;;;;;;5015886;28;20077;-83
2022/08/24 14:11:54;;;;;;;0.00;0.00;;;;;;;;;;5014897;28;20489;-83
2022/08/24 14:14:34;;;;;;;0.00;0.00;;;;;;;;;;5014495;28;20061;-84
2022/08/24 14:19:55;;;;;;;0.00;0.00;;;;;;;;;;5015923;28;20038;-83
2022/08/24 14:22:29;;;;;;;0.00;0.00;;;;;;;;;;5014758;28;20292;-84
2022/08/24 14:25:11;;;;;;;0.00;0.00;;;;;;;;;;5015936;28;20397;-83
2022/08/24 14:27:37;;;;;;;0.00;0.00;;;;;;;;;;5014764;28;20559;-83
2022/08/24 14:30:18;;;;;;;0.00;0.00;;;;;;;;;;5014238;28;20061;-84
2022/08/24 14:32:59;;;;;;;0.00;0.00;;;;;;;;;;4998034;28;20048;-83
2022/08/24 14:35:26;;;;;;;0.00;0.00;;;;;;;;;;5014038;28;20073;-84
2022/08/24 14:38:01;;;;;;;0.00;0.00;;;;;;;;;;5014244;28;20103;-83
2022/08/24 14:40:35;;;;;;;0.00;0.00;;;;;;;;;;5013955;28;20053;-83
2022/08/24 14:43:07;;;;;;;0.00;0.00;;;;;;;;;;5015131;28;20433;-83
2022/08/24 14:45:52;;;;;;;0.00;0.00;;;;;;;;;;5013918;28;20061;-83
2022/08/24 14:48:21;;;;;;;0.00;0.00;;;;;;;;;;5014141;28;20511;-83
2022/08/24 14:50:59;;;;;;;0.00;0.00;;;;;;;;;;5015027;28;20253;-83
2022/08/24 14:53:46;;;;;;;0.00;0.00;;;;;;;;;;5013946;28;20124;-83
2022/08/24 14:56:31;;;;;;;0.00;0.00;;;;;;;;;;5015326;28;20136;-83
2022/08/24 14:59:08;;;;;;;0.00;0.00;;;;;;;;;;5015172;28;20170;-83
2022/08/24 15:01:39;;;;;;;0.00;0.00;;;;;;;;;;5013740;28;20041;-83
2022/08/24 15:04:12;;;;;;;0.00;0.00;;;;;;;;;;5014993;28;20081;-84
2022/08/24 15:07:07;;;;;;;0.00;0.00;;;;;;;;;;5014042;28;20042;-86
2022/08/24 15:09:35;;;;;;;0.00;0.00;;;;;;;;;;5005217;28;20524;-86
2022/08/24 15:12:13;;;;;;;0.00;0.00;;;;;;;;;;5015022;28;20042;-86
2022/08/24 15:14:47;;;;;;;0.00;0.00;;;;;;;;;;5014562;28;20046;-90
2022/08/24 15:17:18;;;;;;;0.00;0.00;;;;;;;;;;5013419;28;20532;-85